createdAt,value
2022-09-05T00:00:12.888Z,2.25
2022-09-05T00:01:31.934Z,2.88
2022-09-05T00:02:34.216Z,2.50
2022-09-05T00:04:24.472Z,2.75
2022-09-05T00:06:02.397Z,2.67
2022-09-05T00:07:11.789Z,3.05
2022-09-05T00:08:40.084Z,3.30
2022-09-05T00:10:11.449Z,2.40
2022-09-05T00:11:40.868Z,2.90
2022-09-05T00:12:46.478Z,2.80
2022-09-05T00:14:15.006Z,2.78
2022-09-05T00:15:44.705Z,2.83
2022-09-05T00:16:56.426Z,2.53
2022-09-05T00:23:03.770Z,2.45
2022-09-05T00:24:23.214Z,2.92
2022-09-05T00:24:26.686Z,2.20
2022-09-05T00:24:31.786Z,2.40
2022-09-05T00:24:42.666Z,2.67
2022-09-05T00:26:17.202Z,2.80
2022-09-05T00:27:36.454Z,2.78
2022-09-05T00:28:41.712Z,2.30
2022-09-05T00:31:07.504Z,2.50
2022-09-05T00:31:57.416Z,2.42
2022-09-05T00:33:20.947Z,2.13
2022-09-05T00:34:37.765Z,2.00
2022-09-05T00:36:19.182Z,2.45
2022-09-05T00:37:35.360Z,2.53
2022-09-05T00:38:41.503Z,2.28
2022-09-05T00:39:47.904Z,2.15
2022-09-05T00:41:13.396Z,2.75
2022-09-05T00:42:21.397Z,2.45
2022-09-05T00:43:28.298Z,2.38
2022-09-05T00:44:33.102Z,2.42
2022-09-05T00:45:37.613Z,2.80
2022-09-05T00:46:44.738Z,2.72
2022-09-05T00:48:03.664Z,2.17
2022-09-05T00:49:21.399Z,2.80
2022-09-05T00:50:32.263Z,2.30
2022-09-05T00:51:43.659Z,2.33
2022-09-05T00:53:07.563Z,2.08
2022-09-05T00:54:41.756Z,2.72
2022-09-05T00:56:12.047Z,2.47
2022-09-05T00:57:39.759Z,2.60
2022-09-05T00:59:15.564Z,3.00
2022-09-05T01:00:21.281Z,3.03
2022-09-05T01:01:26.536Z,2.85
2022-09-05T01:02:32.119Z,2.60
2022-09-05T01:04:19.696Z,2.20
2022-09-05T01:05:33.693Z,2.38
2022-09-05T01:07:06.937Z,2.20
2022-09-05T01:08:27.784Z,2.10
2022-09-05T01:09:50.905Z,2.45
2022-09-05T01:11:28.194Z,2.28
2022-09-05T01:12:56.838Z,2.22
2022-09-05T01:14:10.678Z,2.17
2022-09-05T01:15:42.160Z,2.53
2022-09-05T01:17:19.093Z,2.22
2022-09-05T01:18:30.875Z,2.30
2022-09-05T01:19:46.292Z,2.42
2022-09-05T01:21:19.617Z,2.10
2022-09-05T01:22:39.212Z,2.50
2022-09-05T01:23:54.553Z,2.33
2022-09-05T01:25:02.479Z,2.20
2022-09-05T01:26:29.097Z,2.33
2022-09-05T01:29:13.716Z,2.38
2022-09-05T01:30:18.624Z,2.63
2022-09-05T01:31:37.222Z,2.50
2022-09-05T01:33:17.791Z,2.33
2022-09-05T01:34:33.695Z,2.40
2022-09-05T01:36:04.490Z,2.03
2022-09-05T01:37:33.131Z,2.28
2022-09-05T01:38:57.996Z,1.98
2022-09-05T01:40:39.214Z,2.17
2022-09-05T01:42:12.516Z,2.05
2022-09-05T01:43:31.102Z,2.25
2022-09-05T01:44:57.544Z,2.58
2022-09-05T01:46:17.829Z,2.28
2022-09-05T01:47:45.042Z,2.20
2022-09-05T01:49:08.905Z,2.10
2022-09-05T01:50:36.153Z,2.40
2022-09-05T01:51:50.025Z,2.00
2022-09-05T01:53:29.721Z,2.40
2022-09-05T01:54:56.714Z,2.05
2022-09-05T01:56:32.338Z,2.28
2022-09-05T01:57:55.584Z,2.13
2022-09-05T01:59:16.295Z,2.13
2022-09-05T02:00:40.038Z,2.20
2022-09-05T02:01:57.573Z,2.35
2022-09-05T02:03:17.753Z,2.45
2022-09-05T02:04:30.473Z,1.92
2022-09-05T02:05:47.537Z,2.40
2022-09-05T02:07:31.122Z,1.67
2022-09-05T02:08:52.369Z,2.08
2022-09-05T02:10:32.929Z,2.20
2022-09-05T02:12:05.920Z,2.00
2022-09-05T02:13:35.980Z,2.20
2022-09-05T02:14:45.816Z,1.85
2022-09-05T02:15:59.820Z,2.53
2022-09-05T02:17:49.742Z,2.60
2022-09-05T02:19:09.503Z,2.03
2022-09-05T02:20:24.401Z,2.50
2022-09-05T02:21:29.494Z,2.20
2022-09-05T02:22:43.796Z,1.88
2022-09-05T02:24:03.340Z,1.80
2022-09-05T02:26:00.534Z,2.10
2022-09-05T02:26:51.895Z,2.70
2022-09-05T02:28:06.292Z,2.35
2022-09-05T02:29:28.929Z,2.50
2022-09-05T02:30:50.366Z,2.58
2022-09-05T02:32:18.331Z,2.40
2022-09-05T02:33:30.846Z,2.45
2022-09-05T02:35:07.483Z,2.60
2022-09-05T02:36:23.942Z,2.30
2022-09-05T02:38:54.390Z,2.10
2022-09-05T02:42:57.765Z,2.20
2022-09-05T02:45:06.971Z,2.45
2022-09-05T02:45:20.203Z,2.05
2022-09-05T02:45:20.664Z,2.40
2022-09-05T02:45:27.818Z,2.33
2022-09-05T02:46:49.391Z,2.38
2022-09-05T02:47:59.077Z,1.90
2022-09-05T02:50:00.188Z,2.30
2022-09-05T02:53:52.074Z,2.67
2022-09-05T02:56:42.507Z,2.58
2022-09-05T02:57:32.759Z,2.20
2022-09-05T02:57:34.739Z,2.25
2022-09-05T02:57:35.594Z,1.58
2022-09-05T02:58:15.002Z,2.50
2022-09-05T02:59:45.506Z,2.40
2022-09-05T03:01:11.732Z,2.03
2022-09-05T03:02:26.442Z,2.33
2022-09-05T03:03:39.259Z,2.38
2022-09-05T03:04:51.094Z,2.35
2022-09-05T03:06:34.562Z,2.38
2022-09-05T03:07:54.880Z,2.33
2022-09-05T03:09:19.772Z,2.90
2022-09-05T03:10:54.155Z,2.33
2022-09-05T03:12:34.484Z,2.28
2022-09-05T03:14:04.405Z,2.20
2022-09-05T03:15:44.277Z,2.20
2022-09-05T03:17:23.804Z,2.55
2022-09-05T03:19:06.908Z,2.00
2022-09-05T03:21:09.145Z,2.00
2022-09-05T03:22:47.601Z,2.00
2022-09-05T03:24:08.894Z,1.98
2022-09-05T03:25:36.133Z,2.30
2022-09-05T03:27:32.000Z,2.33
2022-09-05T03:29:02.003Z,2.63
2022-09-05T03:30:08.813Z,2.67
2022-09-05T03:31:30.111Z,2.50
2022-09-05T03:32:50.850Z,2.72
2022-09-05T03:33:58.799Z,2.78
2022-09-05T03:35:33.265Z,2.53
2022-09-05T03:36:47.604Z,1.90
2022-09-05T03:38:10.106Z,2.45
2022-09-05T03:40:17.062Z,1.70
2022-09-05T03:41:39.994Z,2.50
2022-09-05T03:43:03.887Z,2.50
2022-09-05T03:44:31.661Z,2.40
2022-09-05T03:45:54.053Z,2.38
2022-09-05T03:47:21.982Z,2.28
2022-09-05T03:48:30.274Z,3.08
2022-09-05T03:52:34.180Z,2.28
2022-09-05T03:57:10.525Z,2.45
2022-09-05T03:57:12.923Z,1.92
2022-09-05T03:57:15.201Z,2.38
2022-09-05T03:57:15.713Z,2.30
2022-09-05T03:57:56.255Z,2.67
2022-09-05T03:59:43.305Z,2.35
2022-09-05T04:01:17.537Z,2.20
2022-09-05T04:07:03.604Z,2.03
2022-09-05T04:08:10.906Z,3.10
2022-09-05T04:08:17.422Z,2.35
2022-09-05T04:08:19.557Z,2.55
2022-09-05T04:08:58.387Z,2.20
2022-09-05T04:10:29.117Z,2.20
2022-09-05T04:11:48.187Z,2.03
2022-09-05T04:12:55.264Z,2.38
2022-09-05T04:14:26.632Z,2.65
2022-09-05T04:16:05.169Z,2.78
2022-09-05T04:17:17.131Z,2.60
2022-09-05T04:18:32.935Z,2.70
2022-09-05T04:19:49.975Z,2.50
2022-09-05T04:21:12.009Z,2.92
2022-09-05T04:22:48.438Z,2.30
2022-09-05T04:24:09.909Z,2.70
2022-09-05T04:25:42.915Z,2.40
2022-09-05T04:26:47.838Z,2.55
2022-09-05T04:28:20.889Z,2.45
2022-09-05T04:29:35.496Z,2.63
2022-09-05T04:30:49.122Z,2.63
2022-09-05T04:32:19.651Z,2.38
2022-09-05T04:33:36.605Z,2.55
2022-09-05T04:34:45.434Z,2.30
2022-09-05T04:36:17.892Z,2.60
2022-09-05T04:37:47.691Z,2.05
2022-09-05T04:39:05.543Z,2.63
2022-09-05T04:40:35.419Z,2.42
2022-09-05T04:41:45.846Z,2.40
2022-09-05T04:42:49.672Z,2.92
2022-09-05T04:43:53.361Z,2.70
2022-09-05T04:45:11.583Z,2.80
2022-09-05T04:46:20.859Z,2.45
2022-09-05T04:47:38.910Z,2.80
2022-09-05T04:49:13.381Z,2.28
2022-09-05T04:50:24.197Z,2.58
2022-09-05T04:52:00.158Z,2.65
2022-09-05T04:53:33.264Z,2.47
2022-09-05T04:54:52.255Z,2.63
2022-09-05T04:55:57.875Z,2.47
2022-09-05T04:57:14.335Z,2.88
2022-09-05T05:00:54.284Z,2.88
2022-09-05T05:05:59.562Z,2.33
2022-09-05T05:06:02.225Z,2.75
2022-09-05T05:06:12.921Z,2.50
2022-09-05T05:06:16.112Z,2.28
2022-09-05T05:06:38.389Z,2.63
2022-09-05T05:07:51.220Z,2.88
2022-09-05T05:09:05.241Z,2.80
2022-09-05T05:12:56.952Z,2.88
2022-09-05T05:17:57.610Z,2.42
2022-09-05T05:18:01.161Z,2.47
2022-09-05T05:18:07.222Z,2.38
2022-09-05T05:18:13.565Z,2.30
2022-09-05T05:18:53.284Z,2.40
2022-09-05T05:20:42.882Z,2.67
2022-09-05T05:21:48.474Z,3.20
2022-09-05T05:23:12.924Z,2.58
2022-09-05T05:24:22.205Z,2.58
2022-09-05T05:25:26.377Z,2.70
2022-09-05T05:26:36.141Z,2.90
2022-09-05T05:27:46.521Z,2.65
2022-09-05T05:28:54.464Z,2.53
2022-09-05T05:30:08.717Z,2.70
2022-09-05T05:31:18.825Z,2.78
2022-09-05T05:32:44.931Z,2.55
2022-09-05T05:33:51.783Z,2.65
2022-09-05T05:35:23.479Z,2.10
2022-09-05T05:36:40.613Z,2.55
2022-09-05T05:37:50.455Z,2.60
2022-09-05T05:38:56.631Z,2.90
2022-09-05T05:40:02.903Z,2.55
2022-09-05T05:41:16.203Z,2.70
2022-09-05T05:42:25.615Z,2.88
2022-09-05T05:43:37.986Z,2.80
2022-09-05T05:44:40.229Z,3.40
2022-09-05T05:45:44.296Z,3.03
2022-09-05T05:46:58.362Z,3.20
2022-09-05T05:48:06.729Z,2.80
2022-09-05T05:49:31.947Z,2.92
2022-09-05T05:51:03.180Z,3.10
2022-09-05T05:53:43.920Z,2.83
2022-09-05T05:55:11.276Z,2.20
2022-09-05T05:56:28.685Z,2.60
2022-09-05T05:57:45.994Z,2.92
2022-09-05T05:59:09.453Z,3.05
2022-09-05T06:00:51.902Z,3.50
2022-09-05T06:02:12.372Z,3.10
2022-09-05T06:03:27.651Z,2.90
2022-09-05T06:05:14.928Z,2.72
2022-09-05T06:06:38.792Z,2.83
2022-09-05T06:09:28.342Z,2.85
2022-09-05T06:14:52.328Z,3.10
2022-09-05T06:14:55.799Z,2.40
2022-09-05T06:14:56.701Z,2.72
2022-09-05T06:15:21.295Z,2.97
2022-09-05T06:17:19.979Z,2.78
2022-09-05T06:18:50.359Z,2.95
2022-09-05T06:22:04.441Z,2.65
2022-09-05T06:22:26.507Z,3.05
2022-09-05T06:23:39.349Z,2.60
2022-09-05T06:25:11.081Z,2.95
2022-09-05T06:26:53.636Z,2.50
2022-09-05T06:28:18.649Z,3.10
2022-09-05T06:29:38.653Z,2.67
2022-09-05T06:31:27.608Z,3.05
2022-09-05T06:32:49.243Z,2.88
2022-09-05T06:34:33.573Z,2.45
2022-09-05T06:36:04.652Z,4.05
2022-09-05T06:37:38.035Z,2.90
2022-09-05T06:38:58.410Z,2.67
2022-09-05T06:40:00.707Z,3.85
2022-09-05T06:41:31.740Z,3.72
2022-09-05T06:42:52.093Z,2.88
2022-09-05T06:44:37.625Z,3.25
2022-09-05T06:45:59.208Z,2.88
2022-09-05T06:49:29.811Z,2.53
2022-09-05T06:50:48.187Z,2.83
2022-09-05T06:52:36.095Z,3.13
2022-09-05T06:54:06.051Z,2.92
2022-09-05T06:55:41.812Z,2.85
2022-09-05T06:57:30.729Z,3.10
2022-09-05T06:59:10.295Z,3.47
2022-09-05T07:00:47.838Z,2.75
2022-09-05T07:02:00.367Z,2.70
2022-09-05T07:03:40.462Z,3.35
2022-09-05T07:05:23.619Z,3.10
2022-09-05T07:06:49.411Z,3.00
2022-09-05T07:08:18.440Z,2.90
2022-09-05T07:09:52.129Z,3.08
2022-09-05T07:11:16.743Z,2.78
2022-09-05T07:12:30.244Z,3.13
2022-09-05T07:13:45.610Z,3.63
2022-09-05T07:14:53.470Z,3.33
2022-09-05T07:16:26.673Z,3.63
2022-09-05T07:18:08.584Z,3.33
2022-09-05T07:19:29.243Z,3.35
2022-09-05T07:21:16.257Z,3.40
2022-09-05T07:22:48.434Z,3.30
2022-09-05T07:24:10.470Z,3.53
2022-09-05T07:25:18.720Z,3.60
2022-09-05T07:26:49.689Z,3.33
2022-09-05T07:28:26.476Z,3.78
2022-09-05T07:29:24.285Z,3.85
2022-09-05T07:30:26.962Z,3.70
2022-09-05T07:31:38.062Z,4.03
2022-09-05T07:32:45.638Z,3.25
2022-09-05T07:33:48.336Z,3.85
2022-09-05T07:34:52.846Z,3.47
2022-09-05T07:36:03.374Z,3.83
2022-09-05T07:37:22.591Z,3.55
2022-09-05T07:38:49.058Z,3.40
2022-09-05T07:39:53.974Z,3.58
2022-09-05T07:41:08.357Z,3.60
2022-09-05T07:42:26.418Z,3.90
2022-09-05T07:43:39.391Z,3.60
2022-09-05T07:44:56.851Z,3.60
2022-09-05T07:45:59.035Z,3.63
2022-09-05T07:47:14.718Z,4.00
2022-09-05T07:48:34.376Z,3.78
2022-09-05T07:49:50.544Z,3.15
2022-09-05T07:55:10.986Z,3.65
2022-09-05T07:56:52.992Z,3.65
2022-09-05T07:56:55.497Z,3.58
2022-09-05T07:57:16.008Z,3.67
2022-09-05T07:58:52.847Z,3.25
2022-09-05T08:00:26.896Z,3.33
2022-09-05T08:01:32.933Z,3.67
2022-09-05T08:02:47.045Z,3.33
2022-09-05T08:04:00.379Z,3.92
2022-09-05T08:05:08.562Z,3.33
2022-09-05T08:06:55.790Z,3.72
2022-09-05T08:07:52.799Z,3.53
2022-09-05T08:09:21.461Z,2.97
2022-09-05T08:10:35.642Z,4.05
2022-09-05T08:12:09.617Z,3.42
2022-09-05T08:13:24.457Z,3.22
2022-09-05T08:15:03.891Z,3.35
2022-09-05T08:16:13.137Z,3.72
2022-09-05T08:17:20.441Z,3.70
2022-09-05T08:18:51.617Z,4.00
2022-09-05T08:20:15.087Z,3.50
2022-09-05T08:21:27.329Z,3.25
2022-09-05T08:22:54.865Z,3.45
2022-09-05T08:24:13.634Z,3.30
2022-09-05T08:25:27.487Z,3.08
2022-09-05T08:27:03.074Z,3.72
2022-09-05T08:28:20.371Z,4.22
2022-09-05T08:29:31.894Z,2.90
2022-09-05T08:30:44.062Z,3.53
2022-09-05T08:31:52.626Z,3.38
2022-09-05T08:33:11.414Z,3.60
2022-09-05T08:34:31.482Z,3.65
2022-09-05T08:36:01.266Z,3.35
2022-09-05T08:37:05.247Z,3.40
2022-09-05T08:38:08.864Z,3.33
2022-09-05T08:39:12.709Z,3.47
2022-09-05T08:40:20.844Z,3.47
2022-09-05T08:41:50.250Z,4.00
2022-09-05T08:43:53.179Z,3.42
2022-09-05T08:46:35.742Z,3.58
2022-09-05T08:46:49.845Z,3.50
2022-09-05T08:48:09.447Z,3.50
2022-09-05T08:49:46.896Z,3.67
2022-09-05T08:51:05.139Z,3.47
2022-09-05T08:52:33.677Z,3.30
2022-09-05T08:53:46.665Z,3.10
2022-09-05T08:55:08.932Z,4.22
2022-09-05T08:56:49.404Z,3.42
2022-09-05T08:58:07.942Z,3.50
2022-09-05T08:59:36.013Z,3.38
2022-09-05T09:00:50.633Z,3.80
2022-09-05T09:02:46.729Z,3.40
2022-09-05T09:04:11.400Z,3.38
2022-09-05T09:06:12.483Z,3.25
2022-09-05T09:07:51.746Z,3.60
2022-09-05T09:10:34.919Z,3.58
2022-09-05T09:11:52.280Z,3.30
2022-09-05T09:13:30.474Z,2.78
2022-09-05T09:14:44.586Z,3.40
2022-09-05T09:16:04.674Z,3.28
2022-09-05T09:17:19.024Z,3.45
2022-09-05T09:18:34.109Z,3.42
2022-09-05T09:20:10.030Z,3.38
2022-09-05T09:21:35.470Z,3.10
2022-09-05T09:23:02.833Z,3.08
2022-09-05T09:24:38.365Z,3.30
2022-09-05T09:25:43.467Z,3.20
2022-09-05T09:26:58.749Z,2.75
2022-09-05T09:28:49.556Z,3.22
2022-09-05T09:30:01.401Z,2.95
2022-09-05T09:31:37.526Z,3.30
2022-09-05T09:32:49.054Z,3.72
2022-09-05T09:34:09.227Z,2.95
2022-09-05T09:35:24.003Z,2.80
2022-09-05T09:36:46.406Z,3.30
2022-09-05T09:38:02.461Z,3.00
2022-09-05T09:39:37.720Z,2.60
2022-09-05T09:40:36.059Z,2.97
2022-09-05T09:41:56.585Z,3.22
2022-09-05T09:43:20.470Z,2.88
2022-09-05T09:44:55.359Z,3.20
2022-09-05T09:46:00.260Z,3.80
2022-09-05T09:47:12.898Z,2.83
2022-09-05T09:48:52.823Z,3.03
2022-09-05T09:50:17.839Z,3.13
2022-09-05T09:51:54.604Z,3.60
2022-09-05T09:53:14.941Z,3.10
2022-09-05T09:54:29.057Z,3.03
2022-09-05T09:55:52.866Z,3.60
2022-09-05T09:57:14.543Z,3.45
2022-09-05T09:58:31.250Z,3.10
2022-09-05T10:00:13.450Z,2.92
2022-09-05T10:01:53.259Z,3.33
2022-09-05T10:10:09.984Z,3.40
2022-09-05T10:10:39.862Z,3.58
2022-09-05T10:10:45.885Z,3.22
2022-09-05T10:10:54.213Z,3.10
2022-09-05T10:11:09.183Z,3.28
2022-09-05T10:11:55.636Z,2.80
2022-09-05T10:13:17.299Z,2.83
2022-09-05T10:14:49.658Z,3.15
2022-09-05T10:16:27.136Z,3.35
2022-09-05T10:17:38.753Z,3.05
2022-09-05T10:18:57.630Z,2.72
2022-09-05T10:20:23.235Z,3.03
2022-09-05T10:21:28.242Z,3.30
2022-09-05T10:22:48.930Z,2.80
2022-09-05T10:24:15.408Z,3.22
2022-09-05T10:25:48.559Z,3.10
2022-09-05T10:27:15.502Z,3.08
2022-09-05T10:28:55.945Z,3.25
2022-09-05T10:33:03.812Z,2.88
2022-09-05T10:35:09.783Z,2.90
2022-09-05T10:35:12.999Z,3.10
2022-09-05T10:35:23.696Z,3.30
2022-09-05T10:36:31.643Z,3.50
2022-09-05T10:37:43.559Z,2.90
2022-09-05T10:38:52.737Z,2.90
2022-09-05T10:39:58.157Z,3.47
2022-09-05T10:41:22.173Z,3.50
2022-09-05T10:42:35.143Z,2.92
2022-09-05T10:44:04.502Z,3.20
2022-09-05T10:45:38.046Z,3.10
2022-09-05T10:46:52.082Z,3.03
2022-09-05T10:48:19.678Z,2.78
2022-09-05T10:49:27.026Z,3.33
2022-09-05T10:50:36.521Z,3.03
2022-09-05T10:51:51.970Z,3.28
2022-09-05T10:53:00.372Z,2.85
2022-09-05T10:54:24.518Z,3.22
2022-09-05T10:55:41.684Z,3.75
2022-09-05T10:56:51.937Z,3.63
2022-09-05T11:02:18.608Z,3.08
2022-09-05T11:02:23.405Z,3.33
2022-09-05T11:02:34.869Z,3.70
2022-09-05T11:03:56.851Z,3.30
2022-09-05T11:05:08.225Z,3.22
2022-09-05T11:06:20.955Z,2.97
2022-09-05T11:07:42.633Z,3.13
2022-09-05T11:08:47.829Z,3.55
2022-09-05T11:10:02.791Z,3.03
2022-09-05T11:11:11.255Z,3.00
2022-09-05T11:13:05.847Z,3.17
2022-09-05T11:14:28.623Z,3.03
2022-09-05T11:16:10.313Z,3.45
2022-09-05T11:17:49.153Z,3.22
2022-09-05T11:19:00.681Z,3.03
2022-09-05T11:20:39.799Z,3.35
2022-09-05T11:22:19.890Z,3.40
2022-09-05T11:23:35.513Z,3.28
2022-09-05T11:24:43.737Z,2.70
2022-09-05T11:25:47.765Z,2.88
2022-09-05T11:27:24.914Z,3.15
2022-09-05T11:28:57.544Z,3.00
2022-09-05T11:30:08.042Z,3.10
2022-09-05T11:31:18.393Z,2.95
2022-09-05T11:39:47.121Z,2.92
2022-09-05T11:39:53.152Z,3.13
2022-09-05T11:39:53.715Z,3.00
2022-09-05T11:39:59.643Z,3.05
2022-09-05T11:40:06.567Z,2.83
2022-09-05T11:41:29.649Z,3.25
2022-09-05T11:43:06.929Z,2.55
2022-09-05T11:44:26.004Z,2.95
2022-09-05T11:45:38.046Z,2.60
2022-09-05T11:47:30.092Z,3.05
2022-09-05T11:48:53.356Z,3.10
2022-09-05T11:49:55.856Z,3.30
2022-09-05T11:51:19.658Z,3.53
2022-09-05T11:52:44.689Z,3.08
2022-09-05T11:54:08.431Z,2.97
2022-09-05T11:55:23.853Z,3.25
2022-09-05T11:56:28.855Z,3.13
2022-09-05T11:57:34.236Z,2.63
2022-09-05T11:59:05.245Z,2.95
2022-09-05T12:00:31.154Z,2.83
2022-09-05T12:02:23.321Z,3.25
2022-09-05T12:04:03.697Z,3.15
2022-09-05T12:05:48.409Z,2.70
2022-09-05T12:07:30.033Z,2.78
2022-09-05T12:09:03.292Z,2.65
2022-09-05T12:10:09.873Z,2.60
2022-09-05T12:12:39.529Z,3.05
2022-09-05T12:13:54.817Z,2.60
2022-09-05T12:15:22.234Z,2.30
2022-09-05T12:16:36.189Z,2.90
2022-09-05T12:18:04.315Z,2.30
2022-09-05T12:19:49.026Z,2.30
2022-09-05T12:21:20.715Z,2.50
2022-09-05T12:22:59.062Z,2.92
2022-09-05T12:24:54.966Z,2.72
2022-09-05T12:27:40.841Z,2.60
2022-09-05T12:27:45.034Z,2.05
2022-09-05T12:29:26.867Z,2.00
2022-09-05T12:30:15.298Z,2.65
2022-09-05T12:32:59.455Z,2.70
2022-09-05T12:36:04.817Z,2.38
2022-09-05T12:36:06.371Z,3.05
2022-09-05T12:39:40.315Z,2.35
2022-09-05T12:40:58.479Z,2.42
2022-09-05T12:41:38.189Z,2.92
2022-09-05T12:41:45.178Z,2.67
2022-09-05T12:44:38.704Z,2.60
2022-09-05T12:45:08.969Z,2.75
2022-09-05T12:46:27.277Z,2.35
2022-09-05T12:47:30.453Z,2.38
2022-09-05T12:48:42.810Z,2.00
2022-09-05T12:50:02.774Z,2.30
2022-09-05T12:51:08.625Z,2.45
2022-09-05T12:52:14.324Z,2.28
2022-09-05T12:53:21.050Z,1.98
2022-09-05T12:54:34.688Z,2.00
2022-09-05T12:55:52.110Z,2.58
2022-09-05T13:02:27.835Z,2.20
2022-09-05T13:03:02.514Z,2.50
2022-09-05T13:03:03.137Z,2.42
2022-09-05T13:03:04.085Z,2.30
2022-09-05T13:03:37.916Z,2.35
2022-09-05T13:05:01.813Z,2.42
2022-09-05T13:06:24.711Z,2.63
2022-09-05T13:07:57.038Z,2.22
2022-09-05T13:09:08.611Z,2.40
2022-09-05T13:11:10.078Z,2.30
2022-09-05T13:14:48.703Z,2.33
2022-09-05T13:14:56.949Z,2.55
2022-09-05T13:15:11.411Z,2.50
2022-09-05T13:16:23.644Z,2.72
2022-09-05T13:17:43.084Z,2.33
2022-09-05T13:18:47.989Z,2.40
2022-09-05T13:19:51.832Z,2.20
2022-09-05T13:21:27.167Z,2.33
2022-09-05T13:22:30.082Z,2.60
2022-09-05T13:23:50.452Z,2.78
2022-09-05T13:26:23.732Z,2.67
2022-09-05T13:27:34.550Z,2.88
2022-09-05T13:28:57.172Z,2.28
2022-09-05T13:32:03.883Z,3.00
2022-09-05T13:37:54.159Z,2.60
2022-09-05T13:38:02.656Z,2.88
2022-09-05T13:38:05.479Z,2.67
2022-09-05T13:38:11.032Z,2.28
2022-09-05T13:38:19.753Z,2.47
2022-09-05T13:39:12.957Z,2.30
2022-09-05T13:40:20.205Z,2.40
2022-09-05T13:41:29.099Z,2.90
2022-09-05T13:42:38.595Z,2.38
2022-09-05T13:43:44.977Z,2.92
2022-09-05T13:44:53.820Z,2.40
2022-09-05T13:46:09.592Z,2.30
2022-09-05T13:47:30.142Z,2.33
2022-09-05T13:50:33.249Z,2.78
2022-09-05T13:51:43.836Z,2.15
2022-09-05T13:54:03.574Z,2.60
2022-09-05T13:55:41.839Z,2.83
2022-09-05T13:57:01.352Z,2.90
2022-09-05T13:58:12.072Z,2.75
2022-09-05T13:59:16.177Z,2.47
2022-09-05T14:00:28.857Z,2.75
2022-09-05T14:02:26.275Z,2.50
2022-09-05T14:03:38.606Z,3.13
2022-09-05T14:05:10.904Z,2.70
2022-09-05T14:06:48.617Z,2.70
2022-09-05T14:08:16.794Z,2.53
2022-09-05T14:09:50.009Z,2.72
2022-09-05T14:11:45.115Z,2.80
2022-09-05T14:13:02.543Z,2.65
2022-09-05T14:15:59.449Z,2.40
2022-09-05T14:18:54.384Z,2.53
2022-09-05T14:20:16.934Z,2.80
2022-09-05T14:21:19.611Z,2.47
2022-09-05T14:22:44.929Z,2.45
2022-09-05T14:24:04.625Z,2.60
2022-09-05T14:25:20.258Z,2.33
2022-09-05T14:26:25.423Z,2.83
2022-09-05T14:27:31.977Z,2.28
2022-09-05T14:28:46.628Z,2.50
2022-09-05T14:29:55.276Z,2.42
2022-09-05T14:34:47.755Z,2.22
2022-09-05T14:37:41.622Z,1.98
2022-09-05T14:37:41.990Z,2.30
2022-09-05T14:37:52.109Z,2.00
2022-09-05T14:38:25.724Z,2.03
2022-09-05T14:41:09.112Z,2.15
2022-09-05T14:42:31.358Z,2.22
2022-09-05T14:43:39.810Z,2.20
2022-09-05T14:45:03.333Z,2.58
2022-09-05T14:46:33.388Z,2.20
2022-09-05T14:47:59.839Z,2.42
2022-09-05T14:49:40.528Z,2.00
2022-09-05T14:50:54.585Z,2.55
2022-09-05T14:51:58.429Z,2.70
2022-09-05T14:57:59.109Z,2.60
2022-09-05T15:02:42.400Z,2.47
2022-09-05T15:02:42.654Z,2.40
2022-09-05T15:02:48.693Z,2.47
2022-09-05T15:02:54.611Z,3.25
2022-09-05T15:05:13.590Z,2.83
2022-09-05T15:06:21.291Z,3.30
2022-09-05T15:07:37.968Z,2.72
2022-09-05T15:11:01.922Z,3.25
2022-09-05T15:12:19.691Z,2.60
2022-09-05T15:12:20.064Z,3.40
2022-09-05T15:13:10.392Z,3.05
2022-09-05T15:14:13.397Z,3.10
2022-09-05T15:15:39.276Z,3.17
2022-09-05T15:16:57.871Z,3.42
2022-09-05T15:18:09.666Z,3.50
2022-09-05T15:19:33.151Z,3.55
2022-09-05T15:20:45.008Z,3.05
2022-09-05T15:21:47.333Z,3.30
2022-09-05T15:22:56.403Z,3.33
2022-09-05T15:24:04.215Z,3.58
2022-09-05T15:25:17.556Z,3.03
2022-09-05T15:26:25.622Z,3.38
2022-09-05T15:27:29.632Z,3.47
2022-09-05T15:28:38.639Z,3.53
2022-09-05T15:29:41.824Z,3.78
2022-09-05T15:30:55.845Z,3.25
2022-09-05T15:32:14.874Z,3.55
2022-09-05T15:33:25.463Z,3.58
2022-09-05T15:34:33.285Z,3.55
2022-09-05T15:35:38.508Z,3.85
2022-09-05T15:36:40.861Z,3.60
2022-09-05T15:37:44.936Z,4.00
2022-09-05T15:38:55.866Z,3.72
2022-09-05T15:40:23.711Z,3.67
2022-09-05T15:41:28.989Z,3.92
2022-09-05T15:42:38.024Z,3.75
2022-09-05T15:44:00.583Z,3.63
2022-09-05T15:45:10.040Z,3.60
2022-09-05T15:46:13.671Z,3.90
2022-09-05T15:47:23.864Z,3.65
2022-09-05T15:48:26.538Z,3.33
2022-09-05T15:49:53.766Z,3.35
2022-09-05T15:50:58.790Z,3.17
2022-09-05T15:52:29.128Z,4.13
2022-09-05T15:53:38.045Z,3.58
2022-09-05T15:54:53.483Z,3.92
2022-09-05T15:56:14.240Z,3.58
2022-09-05T15:58:23.468Z,3.67
2022-09-05T15:59:34.322Z,3.63
2022-09-05T16:00:41.690Z,3.60
2022-09-05T16:01:59.662Z,3.35
2022-09-05T16:04:49.890Z,3.70
2022-09-05T16:10:28.505Z,3.70
2022-09-05T16:10:37.063Z,3.20
2022-09-05T16:10:37.542Z,3.60
2022-09-05T16:10:42.216Z,3.67
2022-09-05T16:10:58.052Z,3.67
2022-09-05T16:13:14.914Z,3.72
2022-09-05T16:14:17.135Z,3.50
2022-09-05T16:19:29.382Z,3.47
2022-09-05T16:23:14.636Z,3.65
2022-09-05T16:23:14.854Z,3.22
2022-09-05T16:23:28.260Z,3.30
2022-09-05T16:23:29.521Z,4.03
2022-09-05T16:23:33.137Z,3.47
2022-09-05T16:24:38.670Z,3.53
2022-09-05T16:26:08.707Z,3.53
2022-09-05T16:27:18.057Z,3.45
2022-09-05T16:28:26.235Z,3.67
2022-09-05T16:29:32.705Z,3.53
2022-09-05T16:30:39.704Z,3.65
2022-09-05T16:31:52.750Z,3.55
2022-09-05T16:33:04.233Z,3.50
2022-09-05T16:34:13.502Z,3.88
2022-09-05T16:35:18.155Z,3.65
2022-09-05T16:36:32.736Z,3.92
2022-09-05T16:37:54.690Z,3.72
2022-09-05T16:39:01.828Z,3.65
2022-09-05T16:40:25.434Z,3.53
2022-09-05T16:41:55.740Z,3.63
2022-09-05T16:43:08.451Z,3.30
2022-09-05T16:44:32.096Z,4.50
2022-09-05T16:46:08.707Z,3.97
2022-09-05T16:47:27.488Z,3.70
2022-09-05T16:48:38.755Z,3.80
2022-09-05T16:49:57.331Z,3.60
2022-09-05T16:51:04.159Z,4.00
2022-09-05T16:52:22.469Z,3.35
2022-09-05T16:53:38.047Z,4.00
2022-09-05T16:55:05.909Z,3.42
2022-09-05T16:56:12.171Z,4.25
2022-09-05T16:57:31.480Z,3.60
2022-09-05T16:58:39.747Z,3.85
2022-09-05T16:59:45.215Z,4.75
2022-09-05T17:01:11.289Z,3.47
2022-09-05T17:02:32.953Z,3.25
2022-09-05T17:03:43.369Z,3.42
2022-09-05T17:05:03.496Z,4.63
2022-09-05T17:06:17.845Z,3.90
2022-09-05T17:07:31.375Z,3.88
2022-09-05T17:08:35.691Z,3.80
2022-09-05T17:09:43.186Z,3.80
2022-09-05T17:10:55.877Z,3.60
2022-09-05T17:12:06.822Z,3.60
2022-09-05T17:13:16.683Z,3.72
2022-09-05T17:14:21.509Z,3.65
2022-09-05T17:18:18.468Z,3.83
2022-09-05T17:18:56.463Z,4.00
2022-09-05T17:20:07.213Z,3.85
2022-09-05T17:21:18.803Z,3.95
2022-09-05T17:25:40.136Z,4.07
2022-09-05T17:29:20.924Z,3.80
2022-09-05T17:29:25.248Z,3.85
2022-09-05T17:29:32.749Z,4.60
2022-09-05T17:29:50.488Z,3.65
2022-09-05T17:31:46.125Z,4.32
2022-09-05T17:32:39.358Z,3.80
2022-09-05T17:33:45.539Z,3.90
2022-09-05T17:35:17.074Z,4.10
2022-09-05T17:36:41.158Z,3.78
2022-09-05T17:38:11.441Z,4.28
2022-09-05T17:39:49.064Z,4.15
2022-09-05T17:41:16.140Z,4.22
2022-09-05T17:42:34.387Z,4.13
2022-09-05T17:43:42.193Z,4.63
2022-09-05T17:45:10.689Z,4.35
2022-09-05T17:46:26.488Z,4.60
2022-09-05T17:47:44.347Z,5.07
2022-09-05T17:49:03.311Z,4.03
2022-09-05T17:50:15.037Z,4.50
2022-09-05T17:51:26.702Z,4.15
2022-09-05T17:52:29.031Z,4.53
2022-09-05T17:53:33.413Z,4.60
2022-09-05T17:54:37.421Z,4.65
2022-09-05T17:55:52.836Z,4.45
2022-09-05T17:56:55.083Z,4.60
2022-09-05T17:58:21.252Z,5.18
2022-09-05T17:59:28.486Z,4.80
2022-09-05T18:00:43.719Z,4.78
2022-09-05T18:02:04.444Z,4.88
2022-09-05T18:03:06.668Z,5.57
2022-09-05T18:04:17.024Z,5.35
2022-09-05T18:05:54.959Z,4.90
2022-09-05T18:08:45.291Z,5.25
2022-09-05T18:10:12.455Z,4.40
2022-09-05T18:11:27.597Z,5.13
2022-09-05T18:13:13.259Z,4.80
2022-09-05T18:14:24.540Z,4.53
2022-09-05T18:15:27.854Z,4.63
2022-09-05T18:16:30.220Z,5.85
2022-09-05T18:17:53.682Z,4.60
2022-09-05T18:19:33.546Z,4.65
2022-09-05T18:20:45.620Z,4.60
2022-09-05T18:21:55.925Z,4.70
2022-09-05T18:23:18.289Z,4.30
2022-09-05T18:25:16.691Z,4.72
2022-09-05T18:26:40.799Z,4.68
2022-09-05T18:28:04.459Z,4.63
2022-09-05T18:29:16.956Z,4.47
2022-09-05T18:30:22.288Z,4.15
2022-09-05T18:31:41.691Z,4.47
2022-09-05T18:33:55.465Z,4.40
2022-09-05T18:34:32.130Z,4.68
2022-09-05T18:35:38.293Z,4.70
2022-09-05T18:36:48.766Z,4.15
2022-09-05T18:38:07.491Z,4.82
2022-09-05T18:39:28.000Z,4.35
2022-09-05T18:40:38.788Z,5.03
2022-09-05T18:41:42.883Z,4.53
2022-09-05T18:42:48.423Z,4.97
2022-09-05T18:44:13.807Z,4.43
2022-09-05T18:45:28.603Z,4.53
2022-09-05T18:46:45.489Z,4.53
2022-09-05T18:47:59.171Z,4.90
2022-09-05T18:50:21.699Z,3.85
2022-09-05T18:50:34.510Z,3.85